Time;durP1;ratioP1;P1;durP2;ratioP2;P2;SDS_P1;SDS_P2;PMS_P1;PMS_P2;Temp;Humidity;BMP_temperature;BMP_pressure;BME280_temperature;BME280_humidity;BME280_pressure;Samples;Min_cycle;Max_cycle;Signal;HPM_P1;HPM_P2
2022/12/19 00:00:40;;;;;;;32.70;16.95;;;;;;;5.99;100.00;101751.56;5058928;28;20484;-65
2022/12/19 00:03:05;;;;;;;27.15;15.80;;;;;;;6.11;100.00;101750.03;5055977;28;20216;-70
2022/12/19 00:05:35;;;;;;;25.67;15.10;;;;;;;6.19;100.00;101753.09;5057484;28;20028;-70
2022/12/19 00:08:00;;;;;;;25.70;15.43;;;;;;;6.12;100.00;101757.84;5058071;28;20021;-65
2022/12/19 00:10:26;;;;;;;25.83;14.30;;;;;;;6.06;100.00;101760.81;5059215;28;20249;-65
2022/12/19 00:12:51;;;;;;;34.45;15.52;;;;;;;6.05;100.00;101770.47;5039758;28;20021;-72
2022/12/19 00:15:17;;;;;;;28.90;14.80;;;;;;;5.99;100.00;101767.34;5057052;28;20033;-71
2022/12/19 00:17:42;;;;;;;30.40;16.42;;;;;;;5.98;100.00;101770.91;5057013;28;20021;-71
2022/12/19 00:20:08;;;;;;;28.27;15.35;;;;;;;5.95;100.00;101779.81;5058868;28;20314;-66
2022/12/19 00:22:33;;;;;;;28.60;14.77;;;;;;;5.77;100.00;101780.75;5055954;28;20040;-65
2022/12/19 00:24:59;;;;;;;28.02;13.93;;;;;;;5.84;100.00;101770.75;5057319;28;20033;-65
2022/12/19 00:27:24;;;;;;;31.08;15.25;;;;;;;5.83;100.00;101774.31;5055816;28;20029;-71
2022/12/19 00:29:50;;;;;;;25.77;13.50;;;;;;;5.76;100.00;101774.66;5058320;28;21682;-66
2022/12/19 00:32:15;;;;;;;27.75;13.73;;;;;;;5.66;100.00;101775.22;5054746;28;20033;-65
2022/12/19 00:34:41;;;;;;;27.92;14.23;;;;;;;5.69;100.00;101790.84;5055007;28;20025;-65
2022/12/19 00:37:06;;;;;;;24.33;13.45;;;;;;;5.61;100.00;101780.72;5057277;28;20040;-71
2022/12/19 00:39:31;;;;;;;24.13;12.77;;;;;;;5.64;100.00;101798.09;5055270;28;20036;-65
2022/12/19 00:41:57;;;;;;;21.00;11.20;;;;;;;5.55;100.00;101795.97;5057601;28;20047;-69
2022/12/19 00:44:22;;;;;;;25.35;12.88;;;;;;;5.58;100.00;101787.91;5057439;28;20021;-62
2022/12/19 00:46:48;;;;;;;23.20;11.80;;;;;;;5.55;100.00;101796.81;5058355;28;20029;-68
2022/12/19 00:49:14;;;;;;;25.15;11.23;;;;;;;5.56;100.00;101793.25;5054736;28;20376;-69
2022/12/19 00:51:39;;;;;;;24.48;12.43;;;;;;;5.47;100.00;101801.63;5058809;28;20238;-70
2022/12/19 00:54:05;;;;;;;27.00;12.35;;;;;;;5.39;100.00;101796.75;5056307;28;20032;-63
2022/12/19 00:56:33;;;;;;;19.98;10.13;;;;;;;5.35;100.00;101799.63;5057463;28;20052;-68
2022/12/19 00:58:58;;;;;;;28.35;12.73;;;;;;;5.37;100.00;101801.22;5056673;28;20041;-64
2022/12/19 01:01:32;;;;;;;24.30;12.00;;;;;;;5.40;100.00;101806.34;5056097;28;20098;-70
2022/12/19 01:03:58;;;;;;;25.67;11.00;;;;;;;5.31;100.00;101800.69;5056450;28;20099;-62
2022/12/19 01:06:24;;;;;;;27.15;14.02;;;;;;;5.37;100.00;101792.50;5056292;28;20045;-67
2022/12/19 01:08:49;;;;;;;26.52;14.82;;;;;;;5.38;100.00;101800.31;5057757;28;20037;-69
2022/12/19 01:11:15;;;;;;;25.25;12.25;;;;;;;5.28;100.00;101798.22;5056682;28;20322;-63
2022/12/19 01:13:41;;;;;;;30.20;14.85;;;;;;;5.43;100.00;101798.28;5056086;28;20024;-69
2022/12/19 01:16:10;;;;;;;29.13;14.55;;;;;;;5.40;100.00;101808.13;5056171;28;20094;-62
2022/12/19 01:18:37;;;;;;;26.38;13.85;;;;;;;5.34;100.00;101790.88;5054762;28;20096;-70
2022/12/19 01:21:05;;;;;;;39.25;17.92;;;;;;;5.40;100.00;101792.34;5056955;28;20040;-67
2022/12/19 01:23:31;;;;;;;33.28;15.35;;;;;;;5.46;100.00;101789.41;5054797;28;20017;-67
2022/12/19 01:25:56;;;;;;;30.88;14.43;;;;;;;5.37;100.00;101784.63;5056021;28;20029;-72
2022/12/19 01:28:23;;;;;;;29.48;13.90;;;;;;;5.33;100.00;101780.47;5056897;28;20028;-72
2022/12/19 01:30:49;;;;;;;32.20;15.60;;;;;;;5.35;100.00;101787.34;5038435;28;20092;-65
2022/12/19 01:33:17;;;;;;;29.65;15.05;;;;;;;5.34;100.00;101785.63;5057523;28;20045;-71
2022/12/19 01:35:44;;;;;;;28.38;12.90;;;;;;;5.27;100.00;101791.28;5054664;28;20021;-71
2022/12/19 01:38:14;;;;;;;26.50;14.95;;;;;;;5.30;100.00;101793.75;5055323;28;20053;-71
2022/12/19 01:40:39;;;;;;;30.20;14.55;;;;;;;5.29;100.00;101799.94;5056897;28;20056;-63
2022/12/19 01:43:12;;;;;;;25.98;12.20;;;;;;;5.25;100.00;101803.63;5054896;28;20036;-71
2022/12/19 01:45:38;;;;;;;22.90;12.70;;;;;;;5.26;100.00;101797.47;5054967;28;20124;-72
2022/12/19 01:48:12;;;;;;;32.35;14.40;;;;;;;5.33;100.00;101802.31;5037671;28;20385;-66
2022/12/19 01:50:49;;;;;;;33.90;14.77;;;;;;;5.40;100.00;101795.81;5056421;28;20033;-71
2022/12/19 01:53:15;;;;;;;27.08;11.30;;;;;;;5.33;100.00;101814.59;5056529;28;20029;-66
2022/12/19 01:55:43;;;;;;;34.10;15.20;;;;;;;5.30;100.00;101805.09;5055385;28;20319;-71
2022/12/19 01:58:10;;;;;;;29.00;12.93;;;;;;;5.28;100.00;101814.00;5055610;28;20319;-71
2022/12/19 02:00:35;;;;;;;29.70;12.60;;;;;;;5.26;100.00;101811.44;5057436;28;20025;-65
2022/12/19 02:03:23;;;;;;;28.00;12.65;;;;;;;5.27;100.00;101814.91;5055029;28;20032;-71
2022/12/19 02:05:50;;;;;;;30.58;15.30;;;;;;;5.26;100.00;101802.72;5036147;28;20057;-71
2022/12/19 02:08:16;;;;;;;32.58;16.42;;;;;;;5.30;100.00;101812.13;5056546;28;20035;-71
2022/12/19 02:10:42;;;;;;;29.60;14.65;;;;;;;5.27;100.00;101809.66;5055373;28;20040;-65
2022/12/19 02:13:07;;;;;;;31.80;15.30;;;;;;;5.36;100.00;101806.56;5057119;28;20032;-72
2022/12/19 02:15:55;;;;;;;38.58;17.00;;;;;;;5.39;100.00;101814.28;5053980;28;20041;-71
2022/12/19 02:18:50;;;;;;;32.05;14.65;;;;;;;5.33;100.00;101804.94;5056490;28;20064;-71
2022/12/19 02:21:31;;;;;;;23.88;12.07;;;;;;;5.07;100.00;101815.88;5026041;28;20223;-63
2022/12/19 02:24:05;;;;;;;27.17;12.88;;;;;;;5.00;100.00;101817.97;5053416;28;20025;-63
2022/12/19 02:26:42;;;;;;;19.92;8.48;;;;;;;4.92;100.00;101817.50;5054297;28;20223;-69
2022/12/19 02:29:34;;;;;;;20.60;9.70;;;;;;;4.87;100.00;101818.66;5055286;28;20016;-69
2022/12/19 02:32:09;;;;;;;22.88;10.13;;;;;;;4.85;100.00;101820.50;5050631;28;20052;-63
2022/12/19 02:35:23;;;;;;;28.38;12.73;;;;;;;4.93;100.00;101818.34;5054319;28;20029;-62
2022/12/19 02:37:56;;;;;;;31.10;15.20;;;;;;;5.02;100.00;101831.88;5036992;28;20097;-62
2022/12/19 02:40:27;;;;;;;24.13;11.82;;;;;;;4.92;100.00;101840.28;5058224;28;20248;-62
2022/12/19 02:42:58;;;;;;;26.75;12.70;;;;;;;4.95;100.00;101834.88;5058846;28;20033;-67
2022/12/19 02:45:28;;;;;;;18.27;10.15;;;;;;;4.76;100.00;101835.75;5059437;28;20032;-63
2022/12/19 02:47:54;;;;;;;22.15;10.35;;;;;;;4.67;100.00;101830.97;5057785;28;20021;-68
2022/12/19 02:50:20;;;;;;;15.93;8.30;;;;;;;4.61;100.00;101838.28;5060104;28;20033;-69
2022/12/19 02:52:47;;;;;;;23.42;11.93;;;;;;;4.60;100.00;101840.03;5059646;28;20051;-69
2022/12/19 02:55:24;;;;;;;20.98;9.55;;;;;;;4.64;100.00;101848.63;5056887;28;20041;-70
2022/12/19 02:57:59;;;;;;;21.30;10.40;;;;;;;4.65;100.00;101848.56;5057779;28;20032;-63
2022/12/19 03:00:26;;;;;;;21.65;11.50;;;;;;;4.64;100.00;101848.63;5058382;28;20037;-63
2022/12/19 03:03:27;;;;;;;21.77;9.32;;;;;;;4.68;100.00;101847.56;5058190;28;20032;-69
2022/12/19 03:06:17;;;;;;;26.00;12.82;;;;;;;4.68;100.00;101858.06;5059881;28;20199;-68
2022/12/19 03:08:52;;;;;;;17.85;9.80;;;;;;;4.43;100.00;101855.72;5059405;28;20029;-63
2022/12/19 03:11:20;;;;;;;19.38;9.73;;;;;;;4.39;100.00;101870.75;5059479;28;20336;-62
2022/12/19 03:13:57;;;;;;;20.38;9.38;;;;;;;4.25;100.00;101873.16;5056068;28;20075;-68
2022/12/19 03:16:23;;;;;;;15.85;6.97;;;;;;;4.11;100.00;101875.53;5058265;28;20033;-69
2022/12/19 03:18:53;;;;;;;15.60;8.90;;;;;;;4.06;100.00;101860.00;5059701;28;20025;-62
2022/12/19 03:21:31;;;;;;;21.92;9.82;;;;;;;4.07;100.00;101866.09;5058320;28;20258;-68
2022/12/19 03:23:57;;;;;;;14.57;8.73;;;;;;;3.97;100.00;101876.13;5057665;28;20218;-68
2022/12/19 03:26:30;;;;;;;17.85;8.68;;;;;;;3.98;100.00;101874.38;5058226;28;20090;-63
2022/12/19 03:29:01;;;;;;;21.40;9.75;;;;;;;4.00;100.00;101880.41;5057473;28;20045;-63
2022/12/19 03:31:30;;;;;;;22.77;10.00;;;;;;;4.01;100.00;101867.22;5058232;28;20037;-70
2022/12/19 03:34:09;;;;;;;20.73;10.80;;;;;;;4.03;100.00;101867.16;5058490;28;20072;-69
2022/12/19 03:36:50;;;;;;;17.70;8.38;;;;;;;3.98;100.00;101874.38;5057590;28;20045;-63
2022/12/19 03:39:18;;;;;;;23.55;10.75;;;;;;;3.92;100.00;101870.25;5057507;28;20029;-62
2022/12/19 03:44:34;;;;;;;25.70;11.05;;;;;;;4.05;100.00;101892.38;5057820;28;20242;-62
2022/12/19 03:47:29;;;;;;;27.20;11.88;;;;;;;4.07;100.00;101898.41;5057743;28;20512;-69
2022/12/19 03:49:55;;;;;;;25.55;11.15;;;;;;;4.12;100.00;101900.81;5025861;28;20099;-68
2022/12/19 03:53:14;;;;;;;28.45;12.48;;;;;;;4.39;100.00;101899.63;5057668;28;20238;-69
2022/12/19 03:55:53;;;;;;;23.42;11.88;;;;;;;4.33;100.00;101899.03;4939906;29;20339;-62
2022/12/19 03:58:29;;;;;;;23.20;11.15;;;;;;;4.45;100.00;101904.56;4939470;29;20042;-64
2022/12/19 04:00:54;;;;;;;25.35;11.93;;;;;;;4.53;100.00;101916.50;5025995;28;20243;-64
2022/12/19 04:03:20;;;;;;;19.52;10.82;;;;;;;4.69;100.00;101907.00;5057346;28;20028;-71
2022/12/19 04:05:48;;;;;;;27.23;12.63;;;;;;;4.75;100.00;101906.69;5057956;28;20271;-71
2022/12/19 04:08:15;;;;;;;20.52;11.15;;;;;;;4.72;100.00;101899.81;5057668;28;20384;-72
2022/12/19 04:10:53;;;;;;;24.20;11.80;;;;;;;4.59;100.00;101909.19;5055575;28;20032;-72
2022/12/19 04:13:24;;;;;;;26.05;12.32;;;;;;;4.85;100.00;101897.47;5056694;28;20319;-65
2022/12/19 04:16:02;;;;;;;23.27;10.65;;;;;;;4.90;100.00;101894.63;5058441;28;20223;-71
2022/12/19 04:18:29;;;;;;;24.25;11.30;;;;;;;5.11;100.00;101904.94;5056024;28;20049;-71
2022/12/19 04:21:02;;;;;;;21.83;10.15;;;;;;;5.07;100.00;101899.91;5056759;28;20029;-71
2022/12/19 04:23:34;;;;;;;18.67;10.53;;;;;;;5.17;100.00;101905.56;5058440;28;20043;-72
2022/12/19 04:26:03;;;;;;;22.27;10.70;;;;;;;5.36;100.00;101904.63;5056381;28;21901;-72
2022/12/19 04:28:37;;;;;;;21.88;10.23;;;;;;;5.28;100.00;101905.94;5056784;28;20036;-66
2022/12/19 04:31:03;;;;;;;;;;;;;;;5.25;100.00;101906.94;5059527;28;20036;-65
2022/12/19 04:33:28;;;;;;;23.42;11.00;;;;;;;5.22;100.00;101898.34;5057122;28;19919;-72
2022/12/19 04:35:54;;;;;;;24.40;11.65;;;;;;;5.13;100.00;101905.72;5057731;28;20032;-71
2022/12/19 04:38:19;;;;;;;19.05;10.32;;;;;;;5.26;100.00;101907.78;5056281;28;20045;-71
2022/12/19 04:40:45;;;;;;;21.60;10.15;;;;;;;5.03;100.00;101912.34;5038813;28;20021;-71
2022/12/19 04:43:10;;;;;;;20.42;11.07;;;;;;;5.11;100.00;101909.34;5057822;28;20037;-65
2022/12/19 04:45:36;;;;;;;20.65;10.82;;;;;;;5.22;100.00;101912.34;5046951;28;20021;-71
2022/12/19 04:48:01;;;;;;;22.08;10.98;;;;;;;5.33;100.00;101914.44;5043560;28;20041;-72
2022/12/19 04:50:27;;;;;;;19.80;10.05;;;;;;;5.19;100.00;101922.09;5046790;28;20052;-64
2022/12/19 04:52:52;;;;;;;19.35;8.98;;;;;;;5.16;100.00;101923.09;5059750;28;20245;-72
2022/12/19 04:55:18;;;;;;;19.60;10.18;;;;;;;5.09;100.00;101922.53;5059109;28;20049;-71
2022/12/19 04:57:43;;;;;;;23.65;11.45;;;;;;;5.00;100.00;101927.38;5058592;28;20079;-64
2022/12/19 05:00:10;;;;;;;21.27;10.70;;;;;;;4.97;100.00;101928.38;5056140;28;20031;-71
2022/12/19 05:02:37;;;;;;;21.67;11.20;;;;;;;4.90;100.00;101928.75;5057743;28;20092;-72
2022/12/19 05:05:02;;;;;;;22.88;11.27;;;;;;;4.99;100.00;101931.78;5056283;28;20035;-73
2022/12/19 05:07:28;;;;;;;23.92;11.27;;;;;;;5.06;100.00;101925.31;5056412;28;20303;-65
2022/12/19 05:09:53;;;;;;;22.75;10.95;;;;;;;4.89;100.00;101942.78;5055592;28;20147;-65
2022/12/19 05:12:18;;;;;;;25.55;11.55;;;;;;;4.95;100.00;101937.25;5055912;28;20039;-71
2022/12/19 05:14:44;;;;;;;22.98;11.52;;;;;;;4.92;100.00;101943.50;5054509;28;20527;-71
2022/12/19 05:17:10;;;;;;;20.92;11.50;;;;;;;5.14;100.00;101948.59;5055175;28;20036;-65
2022/12/19 05:19:35;;;;;;;23.73;11.48;;;;;;;5.10;100.00;101955.75;5056010;28;20070;-71
2022/12/19 05:22:00;;;;;;;25.70;11.10;;;;;;;5.13;100.00;101957.38;5061430;28;20036;-65
2022/12/19 05:24:26;;;;;;;19.35;12.20;;;;;;;5.07;100.00;101960.31;5044200;28;20044;-71
2022/12/19 05:26:51;;;;;;;20.73;10.68;;;;;;;5.04;100.00;101963.94;5060058;28;20024;-65
2022/12/19 05:29:17;;;;;;;22.38;11.88;;;;;;;5.14;100.00;101965.19;5061650;28;20032;-64
2022/12/19 05:31:42;;;;;;;22.63;11.95;;;;;;;5.18;100.00;101972.94;5061594;28;20047;-64
2022/12/19 05:34:08;;;;;;;20.52;10.10;;;;;;;5.10;100.00;101968.03;5058881;28;20033;-65
2022/12/19 05:36:33;;;;;;;24.58;12.02;;;;;;;5.30;100.00;101967.13;5061046;28;20058;-71
2022/12/19 05:38:59;;;;;;;23.38;12.38;;;;;;;5.27;100.00;101973.38;5061236;28;20340;-71
2022/12/19 05:41:24;;;;;;;25.48;12.85;;;;;;;5.33;100.00;101974.84;5061545;28;20037;-65
2022/12/19 05:43:53;;;;;;;23.33;12.02;;;;;;;5.26;100.00;101968.19;5061877;28;20032;-65
2022/12/19 05:46:19;;;;;;;22.02;12.25;;;;;;;5.32;100.00;101967.91;5061687;28;20373;-65
2022/12/19 05:48:45;;;;;;;30.75;13.52;;;;;;;5.22;100.00;101969.25;5061300;28;20234;-65
2022/12/19 05:51:11;;;;;;;27.88;14.07;;;;;;;5.28;100.00;101980.31;5061514;28;20441;-65
2022/12/19 05:53:38;;;;;;;27.77;12.80;;;;;;;5.31;100.00;101984.59;5061820;28;20033;-65
2022/12/19 05:56:16;;;;;;;25.45;13.63;;;;;;;5.31;100.00;101977.56;5061026;28;20171;-72
2022/12/19 05:58:41;;;;;;;22.80;12.27;;;;;;;5.35;100.00;101979.09;5061301;28;20337;-72
2022/12/19 06:01:13;;;;;;;27.92;12.65;;;;;;;5.26;100.00;101981.31;5061897;28;20033;-71
2022/12/19 06:03:40;;;;;;;27.35;12.70;;;;;;;5.21;100.00;101973.66;5061712;28;20101;-71
2022/12/19 06:06:08;;;;;;;27.40;13.18;;;;;;;5.21;100.00;101981.53;5061106;28;20233;-71
2022/12/19 06:08:34;;;;;;;28.80;14.23;;;;;;;5.24;100.00;101985.81;5061621;28;20327;-65
2022/12/19 06:11:01;;;;;;;28.17;13.05;;;;;;;5.21;100.00;101983.31;5062438;28;20104;-72
2022/12/19 06:13:28;;;;;;;25.13;12.27;;;;;;;5.29;100.00;101992.53;5063315;28;20025;-71
2022/12/19 06:16:14;;;;;;;31.30;15.32;;;;;;;5.18;100.00;101992.16;5066649;28;20041;-71
2022/12/19 06:18:40;;;;;;;36.42;17.73;;;;;;;5.23;100.00;102003.34;5066452;28;20369;-72
2022/12/19 06:21:11;;;;;;;31.20;15.98;;;;;;;5.08;100.00;102009.28;5066299;28;20107;-65
2022/12/19 06:23:37;;;;;;;35.70;17.92;;;;;;;5.10;100.00;102008.28;5066269;28;20025;-71
2022/12/19 06:26:05;;;;;;;41.22;17.35;;;;;;;5.21;100.00;102018.31;5066217;28;20138;-67
2022/12/19 06:28:31;;;;;;;30.15;16.02;;;;;;;5.13;100.00;102025.66;5066074;28;20055;-71
2022/12/19 06:31:03;;;;;;;31.88;15.73;;;;;;;5.13;100.00;102023.91;5065818;28;20033;-71
2022/12/19 06:33:29;;;;;;;25.58;14.70;;;;;;;5.15;100.00;102026.44;5066177;28;20315;-71
2022/12/19 06:36:01;;;;;;;30.02;14.30;;;;;;;5.20;100.00;102032.38;5065503;28;20082;-72
2022/12/19 06:38:28;;;;;;;24.80;13.25;;;;;;;5.32;100.00;102031.78;5064850;28;20083;-64
2022/12/19 06:43:38;;;;;;;23.25;12.23;;;;;;;5.55;100.00;102027.22;5064792;28;20047;-62
2022/12/19 06:46:04;;;;;;;28.27;13.52;;;;;;;5.41;100.00;102031.34;5064970;28;20040;-65
2022/12/19 06:48:30;;;;;;;27.50;13.10;;;;;;;5.63;100.00;102036.44;5064829;28;20029;-66
2022/12/19 06:50:55;;;;;;;29.95;15.43;;;;;;;5.72;100.00;102030.72;5064685;28;20040;-62
2022/12/19 06:53:21;;;;;;;22.90;13.73;;;;;;;5.64;100.00;102038.13;5064452;28;20056;-65
2022/12/19 06:55:47;;;;;;;24.77;12.52;;;;;;;5.35;100.00;102034.28;5063169;28;20037;-71
2022/12/19 06:58:13;;;;;;;26.88;13.02;;;;;;;5.41;100.00;102041.88;5064233;28;20036;-71
2022/12/19 07:00:38;;;;;;;28.10;14.20;;;;;;;5.33;100.00;102048.41;5064865;28;20037;-66
2022/12/19 07:03:08;;;;;;;32.20;14.77;;;;;;;5.38;100.00;102052.53;5064298;28;20044;-72
2022/12/19 07:05:34;;;;;;;28.75;13.82;;;;;;;5.31;100.00;102047.63;5063961;28;20036;-65
2022/12/19 07:08:00;;;;;;;28.48;14.02;;;;;;;5.20;100.00;102052.50;5063918;28;20040;-66
2022/12/19 07:10:25;;;;;;;29.30;15.20;;;;;;;5.20;100.00;102049.88;5064526;28;20025;-65
2022/12/19 07:12:51;;;;;;;29.50;15.02;;;;;;;5.29;100.00;102055.59;5064029;28;20040;-72
2022/12/19 07:15:16;;;;;;;30.38;15.00;;;;;;;5.20;100.00;102063.00;5064257;28;20041;-64
2022/12/19 07:17:42;;;;;;;37.03;16.73;;;;;;;5.26;100.00;102065.38;5064339;28;20044;-71
2022/12/19 07:20:08;;;;;;;35.65;16.73;;;;;;;5.33;100.00;102070.28;5077103;28;20041;-70
2022/12/19 07:22:35;;;;;;;31.02;15.52;;;;;;;5.27;100.00;102070.56;5064321;28;20226;-71
2022/12/19 07:25:01;;;;;;;33.80;16.48;;;;;;;5.32;100.00;102075.59;5063261;28;20080;-65
2022/12/19 07:27:27;;;;;;;35.13;18.98;;;;;;;5.25;100.00;102074.19;5063818;28;20063;-71
2022/12/19 07:29:54;;;;;;;33.65;15.90;;;;;;;5.24;100.00;102077.72;5063925;28;20029;-71
2022/12/19 07:32:20;;;;;;;30.30;14.02;;;;;;;5.10;100.00;102084.44;5063828;28;20223;-70
2022/12/19 07:34:46;;;;;;;30.13;14.18;;;;;;;5.16;100.00;102085.09;5063811;28;20025;-71
2022/12/19 07:37:11;;;;;;;33.58;15.32;;;;;;;5.37;100.00;102079.72;5046328;28;20261;-69
2022/12/19 07:39:37;;;;;;;31.98;14.60;;;;;;;5.33;100.00;102082.56;5064782;28;20033;-65
2022/12/19 07:42:02;;;;;;;31.48;15.02;;;;;;;5.43;100.00;102089.94;5064871;28;20029;-65
2022/12/19 07:44:28;;;;;;;30.52;15.02;;;;;;;5.40;99.40;102094.50;5064698;28;20303;-72
2022/12/19 07:46:53;;;;;;;27.77;13.20;;;;;;;5.30;97.90;102095.84;5064599;28;20238;-71
2022/12/19 07:49:18;;;;;;;27.80;15.10;;;;;;;5.34;98.51;102100.03;5064234;28;20021;-70
2022/12/19 07:51:44;;;;;;;30.42;14.15;;;;;;;5.39;97.05;102103.28;5064580;28;20126;-64
2022/12/19 07:54:09;;;;;;;27.67;12.82;;;;;;;5.30;95.38;102104.56;5063661;28;20154;-64
2022/12/19 07:56:35;;;;;;;23.42;10.48;;;;;;;5.02;93.55;102107.56;5063708;28;20112;-65
2022/12/19 07:59:00;;;;;;;24.38;11.80;;;;;;;5.16;94.01;102108.72;5063146;28;20039;-71
2022/12/19 08:01:26;;;;;;;26.88;13.57;;;;;;;5.12;95.55;102108.00;5063219;28;20049;-71
2022/12/19 08:03:54;;;;;;;24.75;12.27;;;;;;;5.13;93.87;102117.59;5062881;28;20029;-65
2022/12/19 08:06:20;;;;;;;25.23;13.23;;;;;;;5.10;97.56;102115.94;5063121;28;20319;-71
2022/12/19 08:08:45;;;;;;;24.40;13.63;;;;;;;5.11;96.65;102129.94;5063402;28;20021;-65
2022/12/19 08:11:15;;;;;;;25.80;12.73;;;;;;;5.14;95.05;102128.03;5063025;28;20044;-65
2022/12/19 08:13:41;;;;;;;25.95;12.52;;;;;;;5.15;95.40;102128.88;5062908;28;20029;-65
2022/12/19 08:16:06;;;;;;;24.35;12.10;;;;;;;5.04;94.82;102128.50;5063505;28;20196;-65
2022/12/19 08:18:32;;;;;;;26.33;13.02;;;;;;;5.20;95.95;102128.66;5063025;28;20302;-71
2022/12/19 08:20:57;;;;;;;22.08;11.27;;;;;;;5.18;94.45;102130.50;5063732;28;20211;-71
2022/12/19 08:23:23;;;;;;;28.63;13.80;;;;;;;5.29;95.77;102129.13;5064715;28;20341;-65
2022/12/19 08:25:57;;;;;;;25.48;12.82;;;;;;;5.27;96.73;102130.97;5060946;28;20025;-71
2022/12/19 08:28:22;;;;;;;14.93;9.23;;;;;;;5.17;93.46;102134.91;5062961;28;20032;-65
2022/12/19 08:30:48;;;;;;;24.27;12.25;;;;;;;5.24;95.58;102128.50;5062734;28;20053;-65
2022/12/19 08:33:13;;;;;;;21.50;11.88;;;;;;;5.26;94.55;102131.03;5062653;28;20338;-65
2022/12/19 08:35:38;;;;;;;32.53;14.13;;;;;;;5.38;97.59;102130.50;5061921;28;20041;-65
2022/12/19 08:38:05;;;;;;;28.45;12.82;;;;;;;5.38;93.75;102139.22;5062297;28;20036;-71
2022/12/19 08:40:30;;;;;;;24.75;11.60;;;;;;;5.30;95.23;102137.88;5062580;28;20041;-71
2022/12/19 08:42:56;;;;;;;19.15;8.77;;;;;;;5.24;92.83;102143.41;5061364;28;20222;-65
2022/12/19 08:45:21;;;;;;;23.13;10.82;;;;;;;5.21;93.97;102149.66;5062562;28;20037;-71
2022/12/19 08:47:46;;;;;;;27.90;13.23;;;;;;;5.26;94.54;102142.41;5062325;28;20269;-72
2022/12/19 08:50:13;;;;;;;26.15;12.40;;;;;;;5.30;95.37;102137.88;5062564;28;20043;-71
2022/12/19 08:52:38;;;;;;;24.65;11.82;;;;;;;5.26;96.33;102138.94;5062229;28;20021;-71
2022/12/19 08:55:04;;;;;;;27.23;14.32;;;;;;;5.29;95.71;102142.28;5061704;28;20090;-71
2022/12/19 08:57:29;;;;;;;24.25;11.88;;;;;;;5.39;93.92;102138.31;5062609;28;20071;-65
2022/12/19 08:59:55;;;;;;;21.50;9.68;;;;;;;5.34;94.15;102145.53;5062223;28;20264;-71
2022/12/19 09:02:20;;;;;;;28.20;12.55;;;;;;;5.24;94.42;102144.25;5062117;28;20032;-71
2022/12/19 09:04:46;;;;;;;26.73;12.77;;;;;;;5.29;95.00;102138.78;5061850;28;20041;-65
2022/12/19 09:07:12;;;;;;;20.75;10.93;;;;;;;5.28;94.14;102140.56;5062194;28;20345;-71
2022/12/19 09:09:38;;;;;;;20.38;9.65;;;;;;;5.16;92.43;102146.34;5062233;28;20033;-65
2022/12/19 09:12:03;;;;;;;26.83;13.20;;;;;;;5.18;94.39;102139.25;5061651;28;20028;-71
2022/12/19 09:14:34;;;;;;;24.13;12.05;;;;;;;5.14;94.91;102132.44;5062289;28;20067;-65
2022/12/19 09:17:00;;;;;;;24.45;11.77;;;;;;;5.23;94.67;102132.03;5061978;28;20331;-71
2022/12/19 09:19:26;;;;;;;22.90;11.20;;;;;;;5.35;92.59;102134.09;5061694;28;20148;-65
2022/12/19 09:21:51;;;;;;;24.42;12.18;;;;;;;5.44;93.91;102133.69;5062175;28;20021;-71
2022/12/19 09:24:17;;;;;;;25.05;12.18;;;;;;;5.51;92.49;102131.63;5061782;28;20041;-65
2022/12/19 09:26:43;;;;;;;22.73;10.45;;;;;;;5.30;91.74;102138.72;5061842;28;20021;-72
2022/12/19 09:29:09;;;;;;;30.48;12.18;;;;;;;5.35;93.98;102138.50;5061907;28;20025;-72
2022/12/19 09:31:34;;;;;;;22.65;11.43;;;;;;;5.31;92.77;102129.91;5061277;28;20235;-65
2022/12/19 09:34:00;;;;;;;25.92;12.00;;;;;;;5.52;94.60;102128.06;5061653;28;20032;-71
2022/12/19 09:36:25;;;;;;;22.60;11.10;;;;;;;5.35;91.49;102125.38;5061593;28;20037;-65
2022/12/19 09:38:55;;;;;;;23.77;12.63;;;;;;;5.39;93.93;102119.91;5061853;28;20032;-69
2022/12/19 09:41:30;;;;;;;24.35;12.48;;;;;;;5.45;93.60;102122.25;5061529;28;20087;-64
2022/12/19 09:43:58;;;;;;;25.38;11.15;;;;;;;5.28;91.36;102123.94;5061865;28;20036;-71
2022/12/19 09:46:38;;;;;;;15.20;7.65;;;;;;;5.08;90.86;102124.81;5060516;28;20315;-66
2022/12/19 09:49:10;;;;;;;21.10;9.95;;;;;;;5.11;90.51;102117.66;5061132;28;20024;-65
2022/12/19 09:51:59;;;;;;;18.10;10.40;;;;;;;5.04;90.55;102105.72;5061380;28;20041;-63
2022/12/19 09:54:47;;;;;;;19.90;9.38;;;;;;;5.20;90.72;102110.28;5043789;28;20082;-65
2022/12/19 09:57:35;;;;;;;13.63;6.78;;;;;;;4.98;87.43;102106.00;5061178;28;20059;-71
2022/12/19 10:00:06;;;;;;;18.02;7.70;;;;;;;4.92;91.24;102108.03;5061444;28;20032;-65
2022/12/19 10:02:43;;;;;;;17.95;9.55;;;;;;;5.01;91.56;102099.75;5060646;28;20534;-72
2022/12/19 10:05:27;;;;;;;18.67;9.63;;;;;;;4.98;89.79;102105.16;5061121;28;20040;-65
2022/12/19 10:07:53;;;;;;;25.00;10.30;;;;;;;5.16;93.88;102095.59;5060850;28;20095;-65
2022/12/19 10:11:17;;;;;;;18.85;10.63;;;;;;;5.16;91.63;102085.94;5061279;28;20035;-71
2022/12/19 10:14:08;;;;;;;19.92;8.93;;;;;;;5.34;89.03;102098.25;4961317;28;20348;-71
2022/12/19 10:16:59;;;;;;;18.38;8.13;;;;;;;5.07;86.16;102097.72;4960783;28;20110;-65
2022/12/19 10:19:47;;;;;;;14.27;7.20;;;;;;;4.96;87.73;102084.22;5041934;28;20033;-71
2022/12/19 10:22:25;;;;;;;16.35;8.57;;;;;;;5.02;88.54;102083.09;5023725;28;20044;-65
2022/12/19 10:25:35;;;;;;;15.45;8.93;;;;;;;4.99;88.24;102088.47;5060850;28;20039;-65
2022/12/19 10:28:36;;;;;;;18.08;8.00;;;;;;;4.96;87.90;102078.97;5061951;28;20365;-65
2022/12/19 10:31:16;;;;;;;14.57;6.85;;;;;;;4.86;86.49;102080.28;5061250;28;20361;-68
2022/12/19 10:33:54;;;;;;;14.57;6.63;;;;;;;4.93;88.67;102068.59;5061209;28;20071;-62
2022/12/19 10:36:23;;;;;;;11.13;5.50;;;;;;;4.84;87.62;102074.25;5061424;28;20044;-69
2022/12/19 10:39:11;;;;;;;14.68;7.28;;;;;;;4.88;89.66;102067.97;5061108;28;20036;-68
2022/12/19 10:41:40;;;;;;;17.13;8.55;;;;;;;4.95;91.85;102069.38;5059760;28;20231;-68
2022/12/19 10:44:09;;;;;;;12.25;5.97;;;;;;;4.87;88.21;102061.00;5060065;28;20017;-68
2022/12/19 10:46:37;;;;;;;12.00;5.30;;;;;;;4.78;84.87;102059.63;5060772;28;20067;-69
2022/12/19 10:49:12;;;;;;;12.52;6.32;;;;;;;4.78;86.94;102058.78;5060763;28;20070;-68
2022/12/19 10:51:38;;;;;;;12.65;6.30;;;;;;;4.80;87.30;102052.56;5061032;28;20065;-62
2022/12/19 10:54:03;;;;;;;13.00;5.47;;;;;;;4.86;90.21;102063.69;5061023;28;20048;-68
2022/12/19 10:56:30;;;;;;;8.95;6.15;;;;;;;4.89;88.08;102061.78;5060589;28;20049;-62
2022/12/19 10:58:57;;;;;;;11.20;4.82;;;;;;;4.81;86.30;102056.88;5075174;28;20036;-68
2022/12/19 11:01:27;;;;;;;7.25;3.83;;;;;;;4.77;80.76;102063.19;5064997;28;20091;-66
2022/12/19 11:04:21;;;;;;;9.27;4.10;;;;;;;4.76;80.64;102058.00;5064034;28;20049;-62
2022/12/19 11:07:04;;;;;;;10.85;5.35;;;;;;;4.80;82.51;102056.94;5064236;28;20071;-62
2022/12/19 11:09:42;;;;;;;5.72;3.92;;;;;;;4.78;82.71;102059.63;5064828;28;20303;-62
2022/12/19 11:12:09;;;;;;;14.63;6.57;;;;;;;4.88;82.38;102052.19;5067083;28;20383;-62
2022/12/19 11:14:38;;;;;;;11.20;5.93;;;;;;;4.93;84.69;102049.38;5071651;28;20033;-63
2022/12/19 11:17:03;;;;;;;6.38;3.63;;;;;;;4.90;82.31;102052.13;5063841;28;20342;-63
2022/12/19 11:19:32;;;;;;;8.77;4.90;;;;;;;4.78;81.81;102049.13;5064070;28;20043;-68
2022/12/19 11:22:24;;;;;;;8.00;4.32;;;;;;;4.78;79.25;102048.28;5064213;28;20059;-62
2022/12/19 11:24:52;;;;;;;14.25;5.10;;;;;;;4.82;81.82;102050.72;5064168;28;20315;-62
2022/12/19 11:27:31;;;;;;;10.63;4.97;;;;;;;4.79;82.41;102040.34;5064117;28;20243;-61
2022/12/19 11:29:59;;;;;;;7.20;4.10;;;;;;;4.89;78.97;102050.44;5063522;28;20102;-68
2022/12/19 11:32:32;;;;;;;8.90;4.72;;;;;;;4.94;80.98;102037.94;5063708;28;20033;-62